Osprey — WDH6421 — position and weather

sailwx.info

Track history (hours):
 
Tides and Currents Weather Stations Pressure Air Temp Water Temp Dewpoint Dewpoint Depression Visibility Wind Speed Wind Dir Waves Ship Positions

Osprey

Owner: Tideline Marine Group, Inc., Sausalito, CA. More information available from US FCC via Universal Licensing System and Coast Guard Vessel Documentation Center.

Last reported at 2018-Feb-11 03:07 UTC. Time now 2018-Feb-20 05:37 UTC.
Position N 37°55' W 122°22'.
Warning: this ship's position is 9 days out of date.

; draft 1.2 m.

Type: Passenger vessel. MMSI: 367637770.

Date/timePositionNaut miles runAvg speedWind from/ knotsBaromVisibWave heightAir tempDewpointWater temp
2018-Feb-11 03:07N 37°55' W 122°22'0 3.1
2018-Feb-11 03:00N 37°55' W 122°22'1 2.5
2018-Feb-11 02:30N 37°54' W 122°23'2 3.8
2018-Feb-11 02:00N 37°53' W 122°22'2 3.2
2018-Feb-11 01:30N 37°52' W 122°20'0 0.0
2018-Feb-11 01:00N 37°52' W 122°20'0 0.0
2018-Feb-11 00:30N 37°52' W 122°20'0 0.0
2018-Feb-11 00:00N 37°52' W 122°20'0 0.0
2018-Feb-10 23:30N 37°52' W 122°20'0 0.0
2018-Feb-10 23:00N 37°52' W 122°20'0 0.0
2018-Feb-10 22:30N 37°52' W 122°20'1 2.1
2018-Feb-10 22:00N 37°52' W 122°19'0 0.0
2018-Feb-10 21:30N 37°52' W 122°19'0 0.0
2018-Feb-10 02:14N 37°52' W 122°19'1 5.2
2018-Feb-10 02:00N 37°51' W 122°20'4 7.2
2018-Feb-10 01:30N 37°49' W 122°23'5 9.5
2018-Feb-10 01:00N 37°52' W 122°19'611.2
2018-Feb-10 00:30N 37°48' W 122°24'611.1
2018-Feb-10 00:00N 37°52' W 122°19'0 0.0
2018-Feb-09 23:30N 37°52' W 122°19'0 0.0
2018-Feb-09 23:00N 37°52' W 122°19'0 0.0
2018-Feb-09 22:46N 37°52' W 122°19'1 0.2
2018-Feb-09 17:30N 37°52' W 122°20'5 3.2
2018-Feb-09 16:00N 37°48' W 122°24'5 0.4
2018-Feb-09 02:00N 37°52' W 122°20'1 0.7
2018-Feb-09 01:00N 37°52' W 122°19'611.1
2018-Feb-09 00:30N 37°48' W 122°24'4 0.8
2018-Feb-08 19:00N 37°51' W 122°19'1 1.1
2018-Feb-08 18:00N 37°52' W 122°19'  
2018-Feb-02 18:01N 37°52' W 122°19'0 0.0
2018-Feb-02 18:00N 37°52' W 122°19'  
Track history (hours):
 
Tides and Currents Weather Stations Pressure Air Temp Water Temp Dewpoint Dewpoint Depression Visibility Wind Speed Wind Dir Waves Ship Positions

Osprey

Owner: Tideline Marine Group, Inc., Sausalito, CA. More information available from US FCC via Universal Licensing System and Coast Guard Vessel Documentation Center.

Last reported at 2018-Feb-11 03:07 UTC. Time now 2018-Feb-20 05:37 UTC.
Position N 37°55' W 122°22'.
Warning: this ship's position is 9 days out of date.

; draft 1.2 m.

Type: Passenger vessel. MMSI: 367637770.

Date/timePositionNaut miles runAvg speedWind from/ knotsBaromVisibWave heightAir tempDewpointWater temp
2018-Feb-11 03:07N 37°55' W 122°22'0 3.1
2018-Feb-11 03:00N 37°55' W 122°22'1 2.5
2018-Feb-11 02:30N 37°54' W 122°23'2 3.8
2018-Feb-11 02:00N 37°53' W 122°22'2 3.2
2018-Feb-11 01:30N 37°52' W 122°20'0 0.0
2018-Feb-11 01:00N 37°52' W 122°20'0 0.0
2018-Feb-11 00:30N 37°52' W 122°20'0 0.0
2018-Feb-11 00:00N 37°52' W 122°20'0 0.0
2018-Feb-10 23:30N 37°52' W 122°20'0 0.0
2018-Feb-10 23:00N 37°52' W 122°20'0 0.0
2018-Feb-10 22:30N 37°52' W 122°20'1 2.1
2018-Feb-10 22:00N 37°52' W 122°19'0 0.0
2018-Feb-10 21:30N 37°52' W 122°19'0 0.0
2018-Feb-10 02:14N 37°52' W 122°19'1 5.2
2018-Feb-10 02:00N 37°51' W 122°20'4 7.2
2018-Feb-10 01:30N 37°49' W 122°23'5 9.5
2018-Feb-10 01:00N 37°52' W 122°19'611.2
2018-Feb-10 00:30N 37°48' W 122°24'611.1
2018-Feb-10 00:00N 37°52' W 122°19'0 0.0
2018-Feb-09 23:30N 37°52' W 122°19'0 0.0
2018-Feb-09 23:00N 37°52' W 122°19'0 0.0
2018-Feb-09 22:46N 37°52' W 122°19'1 0.2
2018-Feb-09 17:30N 37°52' W 122°20'5 3.2
2018-Feb-09 16:00N 37°48' W 122°24'5 0.4
2018-Feb-09 02:00N 37°52' W 122°20'1 0.7
2018-Feb-09 01:00N 37°52' W 122°19'611.1
2018-Feb-09 00:30N 37°48' W 122°24'4 0.8
2018-Feb-08 19:00N 37°51' W 122°19'1 1.1
2018-Feb-08 18:00N 37°52' W 122°19'  
2018-Feb-02 18:01N 37°52' W 122°19'0 0.0
2018-Feb-02 18:00N 37°52' W 122°19'  

Dump ship's entire track history